Aviation Digital Data Service (ADDS)

Output produced by METARs form (1506 UTC 19 January 2019)
found at http://www.aviationweather.gov/metar/data/
 
METAR text: KPIT 191451Z 06008KT 7SM OVC031 M01/M03 A2998 RMK AO2 SLP172 T10111028 58029
Conditions at: KPIT (PITTSBURGH , PA, US) observed 1451 UTC 19 January 2019
Temperature: -1.1°C (30°F)
Dewpoint: -2.8°C (27°F) [RH = 88%]
Pressure (altimeter): 29.98 inches Hg (1015.3 mb)
[Sea-level pressure: 1017.2 mb]
Winds: from the ENE (60 degrees) at 9 MPH (8 knots; 4.1 m/s)
Visibility: 7 miles (11 km)
Ceiling: 3100 feet AGL
Clouds: overcast cloud deck at 3100 feet AGL
Weather: no significant weather observed at this time

METAR text: KPIT 191351Z 07009KT 7SM OVC031 M01/M03 A3000 RMK AO2 SLP180 T10111033
Conditions at: KPIT (PITTSBURGH , PA, US) observed 1351 UTC 19 January 2019
Temperature: -1.1°C (30°F)
Dewpoint: -3.3°C (26°F) [RH = 85%]
Pressure (altimeter): 30.00 inches Hg (1016.0 mb)
[Sea-level pressure: 1018.0 mb]
Winds: from the ENE (70 degrees) at 10 MPH (9 knots; 4.6 m/s)
Visibility: 7 miles (11 km)
Ceiling: 3100 feet AGL
Clouds: overcast cloud deck at 3100 feet AGL
Weather: no significant weather observed at this time

METAR text: KPIT 191251Z 06007KT 8SM OVC031 M02/M03 A3005 RMK AO2 SLP195 T10171033
Conditions at: KPIT (PITTSBURGH , PA, US) observed 1251 UTC 19 January 2019
Temperature: -1.7°C (29°F)
Dewpoint: -3.3°C (26°F) [RH = 89%]
Pressure (altimeter): 30.05 inches Hg (1017.7 mb)
[Sea-level pressure: 1019.5 mb]
Winds: from the ENE (60 degrees) at 8 MPH (7 knots; 3.6 m/s)
Visibility: 8 miles (13 km)
Ceiling: 3100 feet AGL
Clouds: overcast cloud deck at 3100 feet AGL
Weather: no significant weather observed at this time

METAR text: KPIT 191151Z 05006KT 8SM BKN031 OVC140 M02/M03 A3007 RMK AO2 SLP202 T10171033 11011 21022 55005
Conditions at: KPIT (PITTSBURGH , PA, US) observed 1151 UTC 19 January 2019
Temperature: -1.7°C (29°F)
Dewpoint: -3.3°C (26°F) [RH = 89%]
Pressure (altimeter): 30.07 inches Hg (1018.4 mb)
[Sea-level pressure: 1020.2 mb]
Winds: from the NE (50 degrees) at 7 MPH (6 knots; 3.1 m/s)
Visibility: 8 miles (13 km)
Ceiling: 3100 feet AGL
Clouds: broken clouds at 3100 feet AGL
overcast cloud deck at 14000 feet AGL
Weather: no significant weather observed at this time

METAR text: KPIT 191051Z 06006KT 8SM OVC140 M02/M03 A3006 RMK AO2 SLP200 T10171033
Conditions at: KPIT (PITTSBURGH , PA, US) observed 1051 UTC 19 January 2019
Temperature: -1.7°C (29°F)
Dewpoint: -3.3°C (26°F) [RH = 89%]
Pressure (altimeter): 30.06 inches Hg (1018.0 mb)
[Sea-level pressure: 1020.0 mb]
Winds: from the ENE (60 degrees) at 7 MPH (6 knots; 3.1 m/s)
Visibility: 8 miles (13 km)
Ceiling: 14000 feet AGL
Clouds: overcast cloud deck at 14000 feet AGL
Weather: no significant weather observed at this time

METAR text: KPIT 190951Z 08006KT 8SM SCT021 OVC140 M02/M03 A3007 RMK AO2 SLP203 T10171033
Conditions at: KPIT (PITTSBURGH , PA, US) observed 0951 UTC 19 January 2019
Temperature: -1.7°C (29°F)
Dewpoint: -3.3°C (26°F) [RH = 89%]
Pressure (altimeter): 30.07 inches Hg (1018.4 mb)
[Sea-level pressure: 1020.3 mb]
Winds: from the E (80 degrees) at 7 MPH (6 knots; 3.1 m/s)
Visibility: 8 miles (13 km)
Ceiling: 14000 feet AGL
Clouds: scattered clouds at 2100 feet AGL
overcast cloud deck at 14000 feet AGL
Weather: no significant weather observed at this time

METAR text: KPIT 190851Z 07006KT 8SM SCT020 OVC150 M02/M04 A3009 RMK AO2 PRESFR SLP208 T10221039 58019
Conditions at: KPIT (PITTSBURGH , PA, US) observed 0851 UTC 19 January 2019
Temperature: -2.2°C (28°F)
Dewpoint: -3.9°C (25°F) [RH = 88%]
Pressure (altimeter): 30.09 inches Hg (1019.0 mb)
[Sea-level pressure: 1020.8 mb]
Winds: from the ENE (70 degrees) at 7 MPH (6 knots; 3.1 m/s)
Visibility: 8 miles (13 km)
Ceiling: 15000 feet AGL
Clouds: scattered clouds at 2000 feet AGL
overcast cloud deck at 15000 feet AGL
Weather: no significant weather observed at this time

METAR text: KPIT 190751Z 04006KT 9SM BKN020 OVC150 M02/M04 A3011 RMK AO2 SLP218 T10171039
Conditions at: KPIT (PITTSBURGH , PA, US) observed 0751 UTC 19 January 2019
Temperature: -1.7°C (29°F)
Dewpoint: -3.9°C (25°F) [RH = 85%]
Pressure (altimeter): 30.11 inches Hg (1019.7 mb)
[Sea-level pressure: 1021.8 mb]
Winds: from the NE (40 degrees) at 7 MPH (6 knots; 3.1 m/s)
Visibility: 9 miles (14 km)
Ceiling: 2000 feet AGL
Clouds: broken clouds at 2000 feet AGL
overcast cloud deck at 15000 feet AGL
Weather: no significant weather observed at this time

METAR text: KPIT 190733Z 04005KT 9SM BKN020 OVC150 M02/M04 A3012 RMK AO2 T10171039
Conditions at: KPIT (PITTSBURGH , PA, US) observed 0733 UTC 19 January 2019
Temperature: -1.7°C (29°F)
Dewpoint: -3.9°C (25°F) [RH = 85%]
Pressure (altimeter): 30.12 inches Hg (1020.1 mb)
Winds: from the NE (40 degrees) at 6 MPH (5 knots; 2.6 m/s)
Visibility: 9 miles (14 km)
Ceiling: 2000 feet AGL
Clouds: broken clouds at 2000 feet AGL
overcast cloud deck at 15000 feet AGL
Weather: no significant weather observed at this time

METAR text: KPIT 190651Z 00000KT 9SM SCT020 BKN140 OVC220 M02/M04 A3013 RMK AO2 SLP223 T10171039
Conditions at: KPIT (PITTSBURGH , PA, US) observed 0651 UTC 19 January 2019
Temperature: -1.7°C (29°F)
Dewpoint: -3.9°C (25°F) [RH = 85%]
Pressure (altimeter): 30.13 inches Hg (1020.4 mb)
[Sea-level pressure: 1022.3 mb]
Winds: calm
Visibility: 9 miles (14 km)
Ceiling: 14000 feet AGL
Clouds: scattered clouds at 2000 feet AGL
broken clouds at 14000 feet AGL
overcast cloud deck at 22000 feet AGL
Weather: no significant weather observed at this time

METAR text: KPIT 190551Z 01003KT 8SM SCT018 BKN037 OVC150 M02/M03 A3014 RMK AO2 SLP228 T10171033 10006 21017 58002
Conditions at: KPIT (PITTSBURGH , PA, US) observed 0551 UTC 19 January 2019
Temperature: -1.7°C (29°F)
Dewpoint: -3.3°C (26°F) [RH = 89%]
Pressure (altimeter): 30.14 inches Hg (1020.7 mb)
[Sea-level pressure: 1022.8 mb]
Winds: from the N (10 degrees) at 3 MPH (3 knots; 1.5 m/s)
Visibility: 8 miles (13 km)
Ceiling: 3700 feet AGL
Clouds: scattered clouds at 1800 feet AGL
broken clouds at 3700 feet AGL
overcast cloud deck at 15000 feet AGL
Weather: no significant weather observed at this time

METAR text: KPIT 190451Z 06003KT 8SM BKN017 OVC039 M01/M03 A3015 RMK AO2 SLP229 BINOVC T10111028 400111011
Conditions at: KPIT (PITTSBURGH , PA, US) observed 0451 UTC 19 January 2019
Temperature: -1.1°C (30°F)
Dewpoint: -2.8°C (27°F) [RH = 88%]
Pressure (altimeter): 30.15 inches Hg (1021.1 mb)
[Sea-level pressure: 1022.9 mb]
Winds: from the ENE (60 degrees) at 3 MPH (3 knots; 1.5 m/s)
Visibility: 8 miles (13 km)
Ceiling: 1700 feet AGL
Clouds: broken clouds at 1700 feet AGL
overcast cloud deck at 3900 feet AGL
Weather: no significant weather observed at this time

METAR text: KPIT 190442Z 00000KT 8SM BKN016 OVC039 M01/M02 A3015 RMK AO2 BINOVC T10061022
Conditions at: KPIT (PITTSBURGH , PA, US) observed 0442 UTC 19 January 2019
Temperature: -0.6°C (31°F)
Dewpoint: -2.2°C (28°F) [RH = 89%]
Pressure (altimeter): 30.15 inches Hg (1021.1 mb)
Winds: calm
Visibility: 8 miles (13 km)
Ceiling: 1600 feet AGL
Clouds: broken clouds at 1600 feet AGL
overcast cloud deck at 3900 feet AGL
Weather: no significant weather observed at this time

METAR text: KPIT 190351Z 33003KT 9SM FEW019 OVC038 M01/M02 A3016 RMK AO2 SLP233 T10111017
Conditions at: KPIT (PITTSBURGH , PA, US) observed 0351 UTC 19 January 2019
Temperature: -1.1°C (30°F)
Dewpoint: -1.7°C (29°F) [RH = 96%]
Pressure (altimeter): 30.16 inches Hg (1021.4 mb)
[Sea-level pressure: 1023.3 mb]
Winds: from the NNW (330 degrees) at 3 MPH (3 knots; 1.5 m/s)
Visibility: 9 miles (14 km)
Ceiling: 3800 feet AGL
Clouds: few clouds at 1900 feet AGL
overcast cloud deck at 3800 feet AGL
Weather: no significant weather observed at this time

METAR text: KPIT 190251Z 00000KT 9SM OVC039 00/M02 A3015 RMK AO2 SLP230 T00001017 50002
Conditions at: KPIT (PITTSBURGH , PA, US) observed 0251 UTC 19 January 2019
Temperature: 0.0°C (32°F)
Dewpoint: -1.7°C (29°F) [RH = 88%]
Pressure (altimeter): 30.15 inches Hg (1021.1 mb)
[Sea-level pressure: 1023.0 mb]
Winds: calm
Visibility: 9 miles (14 km)
Ceiling: 3900 feet AGL
Clouds: overcast cloud deck at 3900 feet AGL
Weather: no significant weather observed at this time

METAR text: KPIT 190151Z 26003KT 9SM FEW020 OVC035 00/M02 A3017 RMK AO2 SLP236 BINOVC T00001017
Conditions at: KPIT (PITTSBURGH , PA, US) observed 0151 UTC 19 January 2019
Temperature: 0.0°C (32°F)
Dewpoint: -1.7°C (29°F) [RH = 88%]
Pressure (altimeter): 30.17 inches Hg (1021.8 mb)
[Sea-level pressure: 1023.6 mb]
Winds: from the W (260 degrees) at 3 MPH (3 knots; 1.5 m/s)
Visibility: 9 miles (14 km)
Ceiling: 3500 feet AGL
Clouds: few clouds at 2000 feet AGL
overcast cloud deck at 3500 feet AGL
Weather: no significant weather observed at this time

METAR text: KPIT 190119Z 27003KT 9SM SCT018 OVC031 00/M02 A3017 RMK AO2 T00001017
Conditions at: KPIT (PITTSBURGH , PA, US) observed 0119 UTC 19 January 2019
Temperature: 0.0°C (32°F)
Dewpoint: -1.7°C (29°F) [RH = 88%]
Pressure (altimeter): 30.17 inches Hg (1021.8 mb)
Winds: from the W (270 degrees) at 3 MPH (3 knots; 1.5 m/s)
Visibility: 9 miles (14 km)
Ceiling: 3100 feet AGL
Clouds: scattered clouds at 1800 feet AGL
overcast cloud deck at 3100 feet AGL
Weather: no significant weather observed at this time

METAR text: KPIT 190051Z 31003KT 9SM FEW015 OVC028 00/M02 A3017 RMK AO2 SLP235 T00001017
Conditions at: KPIT (PITTSBURGH , PA, US) observed 0051 UTC 19 January 2019
Temperature: 0.0°C (32°F)
Dewpoint: -1.7°C (29°F) [RH = 88%]
Pressure (altimeter): 30.17 inches Hg (1021.8 mb)
[Sea-level pressure: 1023.5 mb]
Winds: from the NW (310 degrees) at 3 MPH (3 knots; 1.5 m/s)
Visibility: 9 miles (14 km)
Ceiling: 2800 feet AGL
Clouds: few clouds at 1500 feet AGL
overcast cloud deck at 2800 feet AGL
Weather: no significant weather observed at this time

METAR text: KPIT 182351Z 30003KT 9SM FEW012 OVC020 01/M02 A3015 RMK AO2 SNE48 SLP228 P0000 60000 T00061017 10011 20000 51013
Conditions at: KPIT (PITTSBURGH , PA, US) observed 2351 UTC 18 January 2019
Temperature: 0.6°C (33°F)
Dewpoint: -1.7°C (29°F) [RH = 85%]
Pressure (altimeter): 30.15 inches Hg (1021.1 mb)
[Sea-level pressure: 1022.8 mb]
Winds: from the WNW (300 degrees) at 3 MPH (3 knots; 1.5 m/s)
Visibility: 9 miles (14 km)
Ceiling: 2000 feet AGL
Clouds: few clouds at 1200 feet AGL
overcast cloud deck at 2000 feet AGL
Weather: no significant weather observed at this time

METAR text: KPIT 182251Z 25003KT 8SM -SN BKN020 OVC032 01/M02 A3014 RMK AO2 SNB46 SLP226 P0000 T00061017
Conditions at: KPIT (PITTSBURGH , PA, US) observed 2251 UTC 18 January 2019
Temperature: 0.6°C (33°F)
Dewpoint: -1.7°C (29°F) [RH = 85%]
Pressure (altimeter): 30.14 inches Hg (1020.7 mb)
[Sea-level pressure: 1022.6 mb]
Winds: from the WSW (250 degrees) at 3 MPH (3 knots; 1.5 m/s)
Visibility: 8 miles (13 km)
Ceiling: 2000 feet AGL
Clouds: broken clouds at 2000 feet AGL
overcast cloud deck at 3200 feet AGL
Weather: -SN  (light snow)

METAR text: KPIT 182151Z 26003KT 9SM FEW008 BKN018 OVC030 01/M01 A3012 RMK AO2 SLP220 T00061011
Conditions at: KPIT (PITTSBURGH , PA, US) observed 2151 UTC 18 January 2019
Temperature: 0.6°C (33°F)
Dewpoint: -1.1°C (30°F) [RH = 88%]
Pressure (altimeter): 30.12 inches Hg (1020.1 mb)
[Sea-level pressure: 1022.0 mb]
Winds: from the W (260 degrees) at 3 MPH (3 knots; 1.5 m/s)
Visibility: 9 miles (14 km)
Ceiling: 1800 feet AGL
Clouds: few clouds at 800 feet AGL
broken clouds at 1800 feet AGL
overcast cloud deck at 3000 feet AGL
Weather: no significant weather observed at this time

METAR text: KPIT 182140Z 28005KT 8SM FEW008 BKN015 OVC020 01/M01 A3012 RMK AO2 T00061011
Conditions at: KPIT (PITTSBURGH , PA, US) observed 2140 UTC 18 January 2019
Temperature: 0.6°C (33°F)
Dewpoint: -1.1°C (30°F) [RH = 88%]
Pressure (altimeter): 30.12 inches Hg (1020.1 mb)
Winds: from the W (280 degrees) at 6 MPH (5 knots; 2.6 m/s)
Visibility: 8 miles (13 km)
Ceiling: 1500 feet AGL
Clouds: few clouds at 800 feet AGL
broken clouds at 1500 feet AGL
overcast cloud deck at 2000 feet AGL
Weather: no significant weather observed at this time

METAR text: KPIT 182051Z 27005KT 9SM FEW008 BKN014 OVC019 01/M01 A3011 RMK AO2 SLP215 60000 T00061011 53010
Conditions at: KPIT (PITTSBURGH , PA, US) observed 2051 UTC 18 January 2019
Temperature: 0.6°C (33°F)
Dewpoint: -1.1°C (30°F) [RH = 88%]
Pressure (altimeter): 30.11 inches Hg (1019.7 mb)
[Sea-level pressure: 1021.5 mb]
Winds: from the W (270 degrees) at 6 MPH (5 knots; 2.6 m/s)
Visibility: 9 miles (14 km)
Ceiling: 1400 feet AGL
Clouds: few clouds at 800 feet AGL
broken clouds at 1400 feet AGL
overcast cloud deck at 1900 feet AGL
Weather: no significant weather observed at this time

METAR text: KPIT 181951Z 27006KT 8SM SCT007 BKN012 OVC018 01/M01 A3009 RMK AO2 SNE06 SLP207 P0000 T00061011
Conditions at: KPIT (PITTSBURGH , PA, US) observed 1951 UTC 18 January 2019
Temperature: 0.6°C (33°F)
Dewpoint: -1.1°C (30°F) [RH = 88%]
Pressure (altimeter): 30.09 inches Hg (1019.0 mb)
[Sea-level pressure: 1020.7 mb]
Winds: from the W (270 degrees) at 7 MPH (6 knots; 3.1 m/s)
Visibility: 8 miles (13 km)
Ceiling: 1200 feet AGL
Clouds: scattered clouds at 700 feet AGL
broken clouds at 1200 feet AGL
overcast cloud deck at 1800 feet AGL
Weather: no significant weather observed at this time

METAR text: KPIT 181913Z 27005KT 7SM SCT007 BKN011 OVC018 01/M01 A3008 RMK AO2 SNE06 P0000 T00061006 $
Conditions at: KPIT (PITTSBURGH , PA, US) observed 1913 UTC 18 January 2019
Temperature: 0.6°C (33°F)
Dewpoint: -0.6°C (31°F) [RH = 92%]
Pressure (altimeter): 30.08 inches Hg (1018.7 mb)
Winds: from the W (270 degrees) at 6 MPH (5 knots; 2.6 m/s)
Visibility: 7 miles (11 km)
Ceiling: 1100 feet AGL
Clouds: scattered clouds at 700 feet AGL
broken clouds at 1100 feet AGL
overcast cloud deck at 1800 feet AGL
Weather:
SOME DATA ABOVE MAY BE INACCURATE!!!
"$" is an indication the sensor requires maintenance

METAR text: KPIT 181851Z 27006KT 6SM -SN BR BKN007 OVC012 01/M01 A3007 RMK AO2 SLP203 P0000 T00061006
Conditions at: KPIT (PITTSBURGH , PA, US) observed 1851 UTC 18 January 2019
Temperature: 0.6°C (33°F)
Dewpoint: -0.6°C (31°F) [RH = 92%]
Pressure (altimeter): 30.07 inches Hg (1018.4 mb)
[Sea-level pressure: 1020.3 mb]
Winds: from the W (270 degrees) at 7 MPH (6 knots; 3.1 m/s)
Visibility: 6 miles (10 km)
Ceiling: 700 feet AGL
Clouds: broken clouds at 700 feet AGL
overcast cloud deck at 1200 feet AGL
Weather: -SN BR  (light snow, mist)

METAR text: KPIT 181751Z 27011KT 6SM -SN BR OVC008 01/M01 A3008 RMK AO2 SNB51 SLP206 P0000 60000 T00061006 10006 20006 50005
Conditions at: KPIT (PITTSBURGH , PA, US) observed 1751 UTC 18 January 2019
Temperature: 0.6°C (33°F)
Dewpoint: -0.6°C (31°F) [RH = 92%]
Pressure (altimeter): 30.08 inches Hg (1018.7 mb)
[Sea-level pressure: 1020.6 mb]
Winds: from the W (270 degrees) at 13 MPH (11 knots; 5.7 m/s)
Visibility: 6 miles (10 km)
Ceiling: 800 feet AGL
Clouds: overcast cloud deck at 800 feet AGL
Weather: -SN BR  (light snow, mist)

METAR text: KPIT 181651Z 27007KT 7SM BKN009 OVC016 01/M01 A3008 RMK AO2 SLP206 T00061006
Conditions at: KPIT (PITTSBURGH , PA, US) observed 1651 UTC 18 January 2019
Temperature: 0.6°C (33°F)
Dewpoint: -0.6°C (31°F) [RH = 92%]
Pressure (altimeter): 30.08 inches Hg (1018.7 mb)
[Sea-level pressure: 1020.6 mb]
Winds: from the W (270 degrees) at 8 MPH (7 knots; 3.6 m/s)
Visibility: 7 miles (11 km)
Ceiling: 900 feet AGL
Clouds: broken clouds at 900 feet AGL
overcast cloud deck at 1600 feet AGL
Weather: no significant weather observed at this time

METAR text: KPIT 181551Z 29009KT 5SM BR OVC007 01/00 A3008 RMK AO2 DZE44 SLP207 P0000 T00060000
Conditions at: KPIT (PITTSBURGH , PA, US) observed 1551 UTC 18 January 2019
Temperature: 0.6°C (33°F)
Dewpoint: 0.0°C (32°F) [RH = 96%]
Pressure (altimeter): 30.08 inches Hg (1018.7 mb)
[Sea-level pressure: 1020.7 mb]
Winds: from the WNW (290 degrees) at 10 MPH (9 knots; 4.6 m/s)
Visibility: 5 miles ( 8 km)
Ceiling: 700 feet AGL
Clouds: overcast cloud deck at 700 feet AGL
Weather: BR  (mist)

METAR text: KPIT 181451Z 27005KT 4SM -DZ BR SCT004 OVC007 01/01 A3006 RMK AO2 DZB12 SLP201 P0000 60000 T00060006 51022
Conditions at: KPIT (PITTSBURGH , PA, US) observed 1451 UTC 18 January 2019
Temperature: 0.6°C (33°F)
Dewpoint: 0.6°C (33°F) [RH = 100%]
Pressure (altimeter): 30.06 inches Hg (1018.0 mb)
[Sea-level pressure: 1020.1 mb]
Winds: from the W (270 degrees) at 6 MPH (5 knots; 2.6 m/s)
Visibility: 4 miles ( 6 km)
Ceiling: 700 feet AGL
Clouds: scattered clouds at 400 feet AGL
overcast cloud deck at 700 feet AGL
Weather: -DZ BR  (light drizzle, mist)

METAR text: KPIT 181442Z 27006KT 4SM -DZ BR SCT004 OVC008 01/01 A3006 RMK AO2 DZB12 P0000 T00060006
Conditions at: KPIT (PITTSBURGH , PA, US) observed 1442 UTC 18 January 2019
Temperature: 0.6°C (33°F)
Dewpoint: 0.6°C (33°F) [RH = 100%]
Pressure (altimeter): 30.06 inches Hg (1018.0 mb)
Winds: from the W (270 degrees) at 7 MPH (6 knots; 3.1 m/s)
Visibility: 4 miles ( 6 km)
Ceiling: 800 feet AGL
Clouds: scattered clouds at 400 feet AGL
overcast cloud deck at 800 feet AGL
Weather: -DZ BR  (light drizzle, mist)

METAR text: KPIT 181351Z 26006KT 5SM BR OVC004 01/01 A3005 RMK AO2 DZE39SNB11E39 SLP195 P0000 T00060006
Conditions at: KPIT (PITTSBURGH , PA, US) observed 1351 UTC 18 January 2019
Temperature: 0.6°C (33°F)
Dewpoint: 0.6°C (33°F) [RH = 100%]
Pressure (altimeter): 30.05 inches Hg (1017.7 mb)
[Sea-level pressure: 1019.5 mb]
Winds: from the W (260 degrees) at 7 MPH (6 knots; 3.1 m/s)
Visibility: 5 miles ( 8 km)
Ceiling: 400 feet AGL
Clouds: overcast cloud deck at 400 feet AGL
Weather: BR  (mist)

METAR text: KPIT 181251Z 27007KT 6SM -DZ BR OVC004 01/01 A3002 RMK AO2 DZB11 SLP186 P0000 T00060006
Conditions at: KPIT (PITTSBURGH , PA, US) observed 1251 UTC 18 January 2019
Temperature: 0.6°C (33°F)
Dewpoint: 0.6°C (33°F) [RH = 100%]
Pressure (altimeter): 30.02 inches Hg (1016.7 mb)
[Sea-level pressure: 1018.6 mb]
Winds: from the W (270 degrees) at 8 MPH (7 knots; 3.6 m/s)
Visibility: 6 miles (10 km)
Ceiling: 400 feet AGL
Clouds: overcast cloud deck at 400 feet AGL
Weather: -DZ BR  (light drizzle, mist)

METAR text: KPIT 181213Z 27005KT 7SM -DZ OVC005 01/01 A3000 RMK AO2 DZB11 P0000 T00060006
Conditions at: KPIT (PITTSBURGH , PA, US) observed 1213 UTC 18 January 2019
Temperature: 0.6°C (33°F)
Dewpoint: 0.6°C (33°F) [RH = 100%]
Pressure (altimeter): 30.00 inches Hg (1016.0 mb)
Winds: from the W (270 degrees) at 6 MPH (5 knots; 2.6 m/s)
Visibility: 7 miles (11 km)
Ceiling: 500 feet AGL
Clouds: overcast cloud deck at 500 feet AGL
Weather: -DZ  (light drizzle)

METAR text: KPIT 181151Z 26006KT 3SM BR OVC004 01/01 A3000 RMK AO2 DZE18 SLP177 P0000 60000 70004 T00060006 10006 21006 53011
Conditions at: KPIT (PITTSBURGH , PA, US) observed 1151 UTC 18 January 2019
Temperature: 0.6°C (33°F)
Dewpoint: 0.6°C (33°F) [RH = 100%]
Pressure (altimeter): 30.00 inches Hg (1016.0 mb)
[Sea-level pressure: 1017.7 mb]
Winds: from the W (260 degrees) at 7 MPH (6 knots; 3.1 m/s)
Visibility: 3 miles ( 5 km)
Ceiling: 400 feet AGL
Clouds: overcast cloud deck at 400 feet AGL
Weather: BR  (mist)

METAR text: KPIT 181143Z 26005KT 3SM BR OVC003 01/01 A2999 RMK AO2 DZE18 P0000 T00060006
Conditions at: KPIT (PITTSBURGH , PA, US) observed 1143 UTC 18 January 2019
Temperature: 0.6°C (33°F)
Dewpoint: 0.6°C (33°F) [RH = 100%]
Pressure (altimeter): 29.99 inches Hg (1015.7 mb)
Winds: from the W (260 degrees) at 6 MPH (5 knots; 2.6 m/s)
Visibility: 3 miles ( 5 km)
Ceiling: 300 feet AGL
Clouds: overcast cloud deck at 300 feet AGL
Weather: BR  (mist)

METAR text: KPIT 181118Z 26005KT 1/2SM R28R/P6000FT BR OVC002 01/01 A2998 RMK AO2 SFC VIS 2 DZE18 P0000 T00060006
Conditions at: KPIT (PITTSBURGH , PA, US) observed 1118 UTC 18 January 2019
Temperature: 0.6°C (33°F)
Dewpoint: 0.6°C (33°F) [RH = 100%]
Pressure (altimeter): 29.98 inches Hg (1015.3 mb)
Winds: from the W (260 degrees) at 6 MPH (5 knots; 2.6 m/s)
Visibility: 0.50 miles (0.80 km)
Ceiling: 200 feet AGL
Clouds: overcast cloud deck at 200 feet AGL
Weather: BR  (mist)

METAR text: KPIT 181051Z 24006KT 1/2SM R28R/P6000FT -DZ BR OVC001 01/01 A2997 RMK AO2 SFC VIS 1 DZB38 SLP167 P0000 T00060006
Conditions at: KPIT (PITTSBURGH , PA, US) observed 1051 UTC 18 January 2019
Temperature: 0.6°C (33°F)
Dewpoint: 0.6°C (33°F) [RH = 100%]
Pressure (altimeter): 29.97 inches Hg (1015.0 mb)
[Sea-level pressure: 1016.7 mb]
Winds: from the WSW (240 degrees) at 7 MPH (6 knots; 3.1 m/s)
Visibility: 0.50 miles (0.80 km)
Ceiling: 100 feet AGL
Clouds: overcast cloud deck at 100 feet AGL
Weather: -DZ BR  (light drizzle, mist)

METAR text: KPIT 180951Z 25006KT 1/2SM R28R/5000VP6000FT BR OVC001 01/01 A2997 RMK AO2 SFC VIS 3/4 SLP168 T00060006
Conditions at: KPIT (PITTSBURGH , PA, US) observed 0951 UTC 18 January 2019
Temperature: 0.6°C (33°F)
Dewpoint: 0.6°C (33°F) [RH = 100%]
Pressure (altimeter): 29.97 inches Hg (1015.0 mb)
[Sea-level pressure: 1016.8 mb]
Winds: from the WSW (250 degrees) at 7 MPH (6 knots; 3.1 m/s)
Visibility: 0.50 miles (0.80 km)
Ceiling: 100 feet AGL
Clouds: overcast cloud deck at 100 feet AGL
Weather: BR  (mist)

METAR text: KPIT 180909Z 23006KT 1/2SM R28R/4500V5000FT FG VV001 01/01 A2996 RMK AO2 T00060006
Conditions at: KPIT (PITTSBURGH , PA, US) observed 0909 UTC 18 January 2019
Temperature: 0.6°C (33°F)
Dewpoint: 0.6°C (33°F) [RH = 100%]
Pressure (altimeter): 29.96 inches Hg (1014.6 mb)
Winds: from the SW (230 degrees) at 7 MPH (6 knots; 3.1 m/s)
Visibility: 0.50 miles (0.80 km)
Ceiling: indefinite ceiling with vertical visibility of 100 feet AGL
Clouds: obscured sky
Weather: FG  (fog)

METAR text: KPIT 180851Z 22005KT 1SM R28R/P6000FT BR OVC002 01/01 A2996 RMK AO2 SLP165 60000 T00060006 56002
Conditions at: KPIT (PITTSBURGH , PA, US) observed 0851 UTC 18 January 2019
Temperature: 0.6°C (33°F)
Dewpoint: 0.6°C (33°F) [RH = 100%]
Pressure (altimeter): 29.96 inches Hg (1014.6 mb)
[Sea-level pressure: 1016.5 mb]
Winds: from the SW (220 degrees) at 6 MPH (5 knots; 2.6 m/s)
Visibility: 1.00 miles (1.61 km)
Ceiling: 200 feet AGL
Clouds: overcast cloud deck at 200 feet AGL
Weather: BR  (mist)

METAR text: KPIT 180751Z 19003KT 1 1/4SM BR OVC002 00/00 A2996 RMK AO2 SNE17 SLP166 P0000 T00000000
Conditions at: KPIT (PITTSBURGH , PA, US) observed 0751 UTC 18 January 2019
Temperature: 0.0°C (32°F)
Dewpoint: 0.0°C (32°F) [RH = 100%]
Pressure (altimeter): 29.96 inches Hg (1014.6 mb)
[Sea-level pressure: 1016.6 mb]
Winds: from the S (190 degrees) at 3 MPH (3 knots; 1.5 m/s)
Visibility: 1.25 miles (2.01 km)
Ceiling: 200 feet AGL
Clouds: overcast cloud deck at 200 feet AGL
Weather: BR  (mist)

METAR text: KPIT 180651Z 18003KT 1 1/2SM -SN BR OVC003 00/00 A2996 RMK AO2 SLP165 P0000 T00000000
Conditions at: KPIT (PITTSBURGH , PA, US) observed 0651 UTC 18 January 2019
Temperature: 0.0°C (32°F)
Dewpoint: 0.0°C (32°F) [RH = 100%]
Pressure (altimeter): 29.96 inches Hg (1014.6 mb)
[Sea-level pressure: 1016.5 mb]
Winds: from the S (180 degrees) at 3 MPH (3 knots; 1.5 m/s)
Visibility: 1.50 miles (2.41 km)
Ceiling: 300 feet AGL
Clouds: overcast cloud deck at 300 feet AGL
Weather: -SN BR  (light snow, mist)

METAR text: KPIT 180551Z 14004KT 1 1/2SM -SN BR OVC004 M01/M01 A2997 RMK AO2 SFC VIS 2 1/2 SLP168 P0000 60002 T10061006 10000 21011 58012
Conditions at: KPIT (PITTSBURGH , PA, US) observed 0551 UTC 18 January 2019
Temperature: -0.6°C (31°F)
Dewpoint: -0.6°C (31°F) [RH = 100%]
Pressure (altimeter): 29.97 inches Hg (1015.0 mb)
[Sea-level pressure: 1016.8 mb]
Winds: from the SE (140 degrees) at 5 MPH (4 knots; 2.1 m/s)
Visibility: 1.50 miles (2.41 km)
Ceiling: 400 feet AGL
Clouds: overcast cloud deck at 400 feet AGL
Weather: -SN BR  (light snow, mist)

METAR text: KPIT 180451Z 15004KT 1 1/2SM -SN BR BKN004 OVC011 M01/M01 A2999 RMK AO2 SFC VIS 2 1/2 SLP177 P0000 T10061006 410061044
Conditions at: KPIT (PITTSBURGH , PA, US) observed 0451 UTC 18 January 2019
Temperature: -0.6°C (31°F)
Dewpoint: -0.6°C (31°F) [RH = 100%]
Pressure (altimeter): 29.99 inches Hg (1015.7 mb)
[Sea-level pressure: 1017.7 mb]
Winds: from the SSE (150 degrees) at 5 MPH (4 knots; 2.1 m/s)
Visibility: 1.50 miles (2.41 km)
Ceiling: 400 feet AGL
Clouds: broken clouds at 400 feet AGL
overcast cloud deck at 1100 feet AGL
Weather: -SN BR  (light snow, mist)

METAR text: KPIT 180351Z 15005KT 1 1/2SM -SN BR OVC005 M01/M01 A3000 RMK AO2 SFC VIS 2 1/2 SLP180 P0001 T10061006
Conditions at: KPIT (PITTSBURGH , PA, US) observed 0351 UTC 18 January 2019
Temperature: -0.6°C (31°F)
Dewpoint: -0.6°C (31°F) [RH = 100%]
Pressure (altimeter): 30.00 inches Hg (1016.0 mb)
[Sea-level pressure: 1018.0 mb]
Winds: from the SSE (150 degrees) at 6 MPH (5 knots; 2.6 m/s)
Visibility: 1.50 miles (2.41 km)
Ceiling: 500 feet AGL
Clouds: overcast cloud deck at 500 feet AGL
Weather: -SN BR  (light snow, mist)

Forecast for: KPIT (PITTSBURGH , PA, US)
Text: KPIT 191443Z 1915/2018 07009KT P6SM OVC030
Forecast period: 1500 to 1900 UTC 19 January 2019
Forecast type: FROM: standard forecast or significant change
Winds: from the ENE (70 degrees) at 10 MPH (9 knots; 4.6 m/s)
Visibility: 6 or more miles 10+ km)
Ceiling: 3000 feet AGL
Clouds: overcast cloud deck at 3000 feet AGL
Weather: no significant weather forecast for this period
Text: TEMPO 1917/1919 5SM -SN OVC012
Forecast period: 1700 to 1900 UTC 19 January 2019
Forecast type: TEMPORARY: The following changes expected for less than half the time period
Visibility: 5 miles (8 km)
Ceiling: 1200 feet AGL
Clouds: overcast cloud deck at 1200 feet AGL
Weather: -SN  (light snow)
Text: FM191900 05010KT 2SM -SNRA OVC008
Forecast period: 1900 UTC 19 January 2019 to 0500 UTC 20 January 2019
Forecast type: FROM: standard forecast or significant change
Winds: from the NE (50 degrees) at 12 MPH (10 knots; 5.1 m/s)
Visibility: 2.00 miles (3.22 km)
Ceiling: 800 feet AGL
Clouds: overcast cloud deck at 800 feet AGL
Weather: -SN -RA  (light snow, light rain)
Text: FM200500 34013G25KT 1SM -SN OVC010
Forecast period: 0500 to 1000 UTC 20 January 2019
Forecast type: FROM: standard forecast or significant change
Winds: from the NNW (340 degrees) at 15 MPH (13 knots; 6.7 m/s)
gusting to 29 MPH (25 knots; 12.9 m/s)
Visibility: 1.00 miles (1.61 km)
Ceiling: 1000 feet AGL
Clouds: overcast cloud deck at 1000 feet AGL
Weather: -SN  (light snow)
Text: FM201000 32014KT 6SM -SN OVC012
Forecast period: 1000 to 1200 UTC 20 January 2019
Forecast type: FROM: standard forecast or significant change
Winds: from the NW (320 degrees) at 16 MPH (14 knots; 7.2 m/s)
Visibility: 6 miles (10 km)
Ceiling: 1200 feet AGL
Clouds: overcast cloud deck at 1200 feet AGL
Weather: -SN  (light snow)
Text: FM201200 33013G24KT P6SM OVC020
Forecast period: 1200 to 1800 UTC 20 January 2019
Forecast type: FROM: standard forecast or significant change
Winds: from the NNW (330 degrees) at 15 MPH (13 knots; 6.7 m/s)
gusting to 28 MPH (24 knots; 12.3 m/s)
Visibility: 6 or more miles 10+ km)
Ceiling: 2000 feet AGL
Clouds: overcast cloud deck at 2000 feet AGL
Weather: no significant weather forecast for this period